Nursultan Nazarbayev International Airport

UACC · Nur-Sultan, Kazakhstan

METAR history UACC · Nursultan Nazarbayev International Airport

Below you see METARs of the last few days. Select a year to browse through older METARs, from the year 2007 onwards.

April 19, 2024

Time Code Weather Temp. Visibility Ceiling Wind METAR/SPECI
23:00
V
14 °C 10 km+ - 100° 100° 5 kt METAR UACC 191800Z 10003MPS CAVOK 14/11 Q1021 NOSIG RMK QFE734/0979
22:30
V
13 °C 10 km+ - 070° 070° 5 kt METAR UACC 191730Z 07003MPS CAVOK 13/11 Q1021 NOSIG RMK QFE734/0979
22:00
V
15 °C 10 km+ - 090° 090° 5 kt METAR UACC 191700Z 09003MPS CAVOK 15/12 Q1021 NOSIG RMK QFE734/0979
21:30
V
15 °C 10 km+ - 100° 100° 5 kt METAR UACC 191630Z 10003MPS CAVOK 15/12 Q1021 NOSIG RMK QFE734/0979
21:00
V
16 °C 10 km+ - 110° 110° 7 kt METAR UACC 191600Z 11004MPS CAVOK 16/12 Q1021 NOSIG RMK QFE734/0979
20:30
V
17 °C 10 km+ - 080° 080° 5 kt METAR UACC 191530Z 08003MPS CAVOK 17/11 Q1021 NOSIG RMK QFE734/0979
20:00
V
18 °C 10 km+ - 080° 080° 5 kt METAR UACC 191500Z 08003MPS CAVOK 18/11 Q1020 NOSIG RMK QFE734/0978
19:30
V
19 °C 10 km+ - 070° 070° 5 kt METAR UACC 191430Z 07003MPS CAVOK 19/11 Q1020 NOSIG RMK QFE734/0978
19:00
V
19 °C 10 km+ - 080° 080° 5 kt METAR UACC 191400Z 08003MPS CAVOK 19/11 Q1020 NOSIG RMK QFE733/0978
18:30
V
21 °C 10 km+ - 090° 090° 5 kt METAR UACC 191330Z 09003MPS CAVOK 21/10 Q1020 NOSIG RMK QFE733/0978
18:00
V
23 °C 10 km+ - 060° 060° 9 kt METAR UACC 191300Z 06005MPS 9999 FEW040 23/10 Q1020 NOSIG RMK QFE733/0978
17:30
V
24 °C 10 km+ - 050° 050° 7 kt METAR UACC 191230Z 05004MPS 360V080 9999 FEW040 24/09 Q1020 NOSIG RMK QFE733/0978
17:00
V
24 °C 10 km+ - 110° 110° 5 kt METAR UACC 191200Z 11003MPS 060V150 9999 FEW040 24/09 Q1020 NOSIG RMK QFE733/0978
16:30
V
24 °C 10 km+ - 090° 090° 3 kt METAR UACC 191130Z 09002MPS 020V130 9999 FEW040 24/10 Q1020 NOSIG RMK QFE733/0978
16:00
V
24 °C 10 km+ - 130° 130° 3 kt METAR UACC 191100Z 13002MPS 100V160 9999 FEW040 24/10 Q1019 NOSIG RMK QFE733/0978
15:30
V
24 °C 10 km+ - 140° 140° 5 kt METAR UACC 191030Z 14003MPS 110V170 CAVOK 24/10 Q1019 NOSIG RMK QFE733/0977
15:00
V
24 °C 10 km+ - 140° 140° 5 kt METAR UACC 191000Z 14003MPS CAVOK 24/10 Q1019 NOSIG RMK QFE733/0977
14:30
V
23 °C 10 km+ - 120° 120° 5 kt METAR UACC 190930Z 12003MPS 070V160 CAVOK 23/10 Q1019 NOSIG RMK QFE733/0977
14:00
V
23 °C 10 km+ - 070° 070° 5 kt METAR UACC 190900Z 07003MPS 030V120 CAVOK 23/10 Q1019 NOSIG RMK QFE733/0978
13:30
V
23 °C 10 km+ - 120° 120° 7 kt METAR UACC 190830Z 12004MPS CAVOK 23/10 Q1020 NOSIG RMK QFE733/0978
13:00
V
22 °C 10 km+ - 130° 130° 5 kt METAR UACC 190800Z 13003MPS 030V160 CAVOK 22/10 Q1020 NOSIG RMK QFE733/0978
12:30
V
23 °C 10 km+ - 060° 060° 3 kt METAR UACC 190730Z 06002MPS 300V110 CAVOK 23/10 Q1020 NOSIG RMK QFE733/0978
12:00
V
22 °C 10 km+ - 340° 340° 3 kt METAR UACC 190700Z 34002MPS CAVOK 22/09 Q1020 NOSIG RMK QFE733/0978
11:30
V
21 °C 10 km+ - 120° 120° 7 kt METAR UACC 190630Z 12004MPS 090V150 CAVOK 21/09 Q1020 NOSIG RMK QFE733/0978
11:00
V
20 °C 10 km+ - 010° 010° 5 kt METAR UACC 190600Z 01003MPS 280V080 CAVOK 20/10 Q1020 NOSIG RMK QFE733/0978
10:30
V
20 °C 10 km+ - 030° 030° 3 kt METAR UACC 190530Z 03002MPS CAVOK 20/10 Q1020 NOSIG RMK QFE733/0978
10:00
V
19 °C 10 km+ - Var Var 1 kt METAR UACC 190500Z VRB01MPS CAVOK 19/10 Q1020 NOSIG RMK QFE733/0978
09:30
V
18 °C 10 km+ - Var Var 1 kt METAR UACC 190430Z VRB01MPS CAVOK 18/09 Q1020 NOSIG RMK QFE733/0978
09:00
V
16 °C 10 km+ - 330° 330° 3 kt METAR UACC 190400Z 33002MPS 260V030 CAVOK 16/10 Q1020 NOSIG RMK QFE733/0978
08:30
V
15 °C 10 km+ - 310° 310° 5 kt METAR UACC 190330Z 31003MPS 290V360 CAVOK 15/09 Q1020 WS R04 NOSIG RMK QFE733/0978
08:00
V
15 °C 10 km+ - 290° 290° 7 kt METAR UACC 190300Z 29004MPS CAVOK 15/10 Q1019 NOSIG RMK QFE733/0978
07:30
V
14 °C 10 km+ - 280° 280° 7 kt METAR UACC 190230Z 28004MPS 250V320 CAVOK 14/10 Q1019 NOSIG RMK QFE733/0977
07:00
V
13 °C 9 km - 260° 260° 5 kt METAR UACC 190200Z 26003MPS 9000 NSC 13/10 Q1019 NOSIG RMK QFE733/0977
06:30
V
12 °C 9 km - 240° 240° 7 kt METAR UACC 190130Z 24004MPS 9000 NSC 12/10 Q1019 NOSIG RMK QFE733/0977
06:00
V
12 °C 10 km+ - 250° 250° 5 kt METAR UACC 190100Z 25003MPS CAVOK 12/09 Q1019 NOSIG RMK QFE733/0977
05:30
V
11 °C 10 km+ - 250° 250° 5 kt METAR UACC 190030Z 25003MPS CAVOK 11/09 Q1019 NOSIG RMK QFE733/0977
05:00
V
12 °C 10 km+ - 250° 250° 5 kt METAR UACC 190000Z 25003MPS CAVOK 12/09 Q1018 NOSIG RMK QFE732/0977
04:30
V
12 °C 10 km+ - 240° 240° 7 kt METAR UACC 182330Z 24004MPS 230V290 CAVOK 12/09 Q1018 NOSIG RMK QFE732/0977
04:00
V
12 °C 10 km+ - 250° 250° 7 kt METAR UACC 182300Z 25004MPS CAVOK 12/09 Q1018 NOSIG RMK QFE732/0977
03:30
V
12 °C 10 km+ - 260° 260° 7 kt METAR UACC 182230Z 26004MPS CAVOK 12/10 Q1018 NOSIG RMK QFE732/0977
03:00
V
12 °C 10 km+ - 250° 250° 9 kt METAR UACC 182200Z 25005MPS CAVOK 12/10 Q1018 NOSIG RMK QFE732/0977
02:30
V
13 °C 10 km+ - 250° 250° 7 kt METAR UACC 182130Z 25004MPS CAVOK 13/10 Q1018 NOSIG RMK QFE732/0977
02:00
V
13 °C 10 km+ - 250° 250° 9 kt METAR UACC 182100Z 25005MPS CAVOK 13/10 Q1018 NOSIG RMK QFE732/0976
01:30
V
13 °C 10 km+ - 250° 250° 11 kt METAR UACC 182030Z 25006MPS CAVOK 13/10 Q1018 NOSIG RMK QFE732/0976
01:00
V
14 °C 10 km+ - 250° 250° 13 kt METAR UACC 182000Z 25007MPS CAVOK 14/10 Q1018 NOSIG RMK QFE732/0977
00:30
V
14 °C 10 km+ - 250° 250° 13 kt METAR UACC 181930Z 25007MPS CAVOK 14/10 Q1018 NOSIG RMK QFE732/0977
00:00
V
14 °C 10 km+ - 250° 250° 13 kt METAR UACC 181900Z 25007MPS CAVOK 14/11 Q1018 NOSIG RMK QFE732/0977

April 18, 2024

Time Code Weather Temp. Visibility Ceiling Wind METAR/SPECI
23:30
V
14 °C 10 km+ - 250° 250° 11 kt METAR UACC 181830Z 25006MPS CAVOK 14/11 Q1019 NOSIG RMK QFE733/0977
23:00
V
15 °C 10 km+ - 250° 250° 13 kt METAR UACC 181800Z 25007MPS CAVOK 15/10 Q1019 NOSIG RMK QFE733/0977
22:30
V
15 °C 10 km+ - 250° 250° 11 kt METAR UACC 181730Z 25006MPS CAVOK 15/10 Q1019 NOSIG RMK QFE733/0977
22:00
V
15 °C 10 km+ - 250° 250° 9 kt METAR UACC 181700Z 25005MPS CAVOK 15/11 Q1019 NOSIG RMK QFE733/0977
21:30
V
15 °C 10 km+ - 250° 250° 9 kt METAR UACC 181630Z 25005MPS CAVOK 15/11 Q1019 NOSIG RMK QFE733/0977
21:00
V
17 °C 10 km+ - 260° 260° 9 kt METAR UACC 181600Z 26005MPS CAVOK 17/11 Q1019 NOSIG RMK QFE733/0977
20:30
V
17 °C 10 km+ - 260° 260° 9 kt METAR UACC 181530Z 26005MPS CAVOK 17/11 Q1019 NOSIG RMK QFE733/0977
20:00
V
18 °C 10 km+ - 250° 250° 11 kt METAR UACC 181500Z 25006MPS CAVOK 18/11 Q1018 NOSIG RMK QFE732/0977
19:30
V
18 °C 10 km+ - 250° 250° 9 kt METAR UACC 181430Z 25005MPS CAVOK 18/12 Q1018 NOSIG RMK QFE732/0976
19:00
V
19 °C 10 km+ - 250° 250° 11 kt METAR UACC 181400Z 25006MPS CAVOK 19/11 Q1018 NOSIG RMK QFE732/0976
18:30
V
20 °C 10 km+ - 250° 250° 11 kt METAR UACC 181330Z 25006MPS CAVOK 20/11 Q1018 NOSIG RMK QFE732/0976
18:00
V
21 °C 10 km+ - 250° 250° 13 kt METAR UACC 181300Z 25007MPS CAVOK 21/11 Q1018 NOSIG RMK QFE732/0976
17:30
V
21 °C 10 km+ - 250° 250° 13 kt METAR UACC 181230Z 25007MPS 9999 SCT028 21/11 Q1018 NOSIG RMK QFE732/0976
17:00
V
22 °C 10 km+ - 250° 250° 15 kt METAR UACC 181200Z 25008MPS 9999 SCT028 22/10 Q1018 NOSIG RMK QFE732/0976
16:30
V
22 °C 10 km+ - 250° 250° 17 kt METAR UACC 181130Z 25009MPS 9999 SCT028 22/11 Q1018 NOSIG RMK QFE732/0976
16:00
V
22 °C 10 km+ - 250° 250° 17 kt METAR UACC 181100Z 25009MPS 9999 SCT028 22/12 Q1018 NOSIG RMK QFE732/0976
15:30
V
22 °C 10 km+ - 250° 250° 15 kt METAR UACC 181030Z 25008MPS 9999 SCT028 22/12 Q1018 NOSIG RMK QFE732/0977
15:00
V
22 °C 10 km+ - 250° 250° 15 kt METAR UACC 181000Z 25008MPS 9999 SCT028 22/11 Q1018 NOSIG RMK QFE732/0977
14:30
V
22 °C 10 km+ - 250° 250° 19 kt METAR UACC 180930Z 25010MPS 9999 SCT028 22/11 Q1018 NOSIG RMK QFE732/0977
14:00
V
21 °C 10 km+ - 240° 240° 21 kt METAR UACC 180900Z 24011MPS 9999 SCT026 21/12 Q1018 NOSIG RMK QFE732/0977
13:48
V
21 °C 10 km+ - 240° 240° 19 - 29 kt METAR UACC 180848Z 24010G15MPS 9999 SCT026 21/11 Q1018 NOSIG RMK QFE732/0977
13:30
V
22 °C 10 km+ - 230° 230° 19 kt METAR UACC 180830Z 23010MPS 9999 SCT026 22/11 Q1019 NOSIG RMK QFE733/0977
13:00
V
21 °C 10 km+ - 220° 220° 19 kt METAR UACC 180800Z 22010MPS 9999 SCT030 21/12 Q1019 NOSIG RMK QFE733/0977
12:30
V
21 °C 10 km+ - 230° 230° 19 kt METAR UACC 180730Z 23010MPS 9999 SCT030 21/12 Q1019 NOSIG RMK QFE733/0977
12:00
V
19 °C 10 km+ - 220° 220° 19 kt METAR UACC 180700Z 22010MPS 9999 SCT030 19/12 Q1019 NOSIG RMK QFE733/0978
11:30
V
19 °C 10 km+ - 220° 220° 17 kt METAR UACC 180630Z 22009MPS 9999 SCT030 19/12 Q1019 NOSIG RMK QFE733/0978
11:00
V
18 °C 10 km+ - 210° 210° 17 kt METAR UACC 180600Z 21009MPS 9999 SCT030 18/12 Q1020 NOSIG RMK QFE733/0978
10:30
V
17 °C 10 km+ - 220° 220° 17 kt METAR UACC 180530Z 22009MPS 9999 SCT043 17/12 Q1020 NOSIG RMK QFE733/0978
10:00
V
17 °C 10 km+ - 220° 220° 13 kt METAR UACC 180500Z 22007MPS 9999 SCT043 17/12 Q1020 NOSIG RMK QFE734/0978
09:30
V
16 °C 10 km+ - 210° 210° 13 kt METAR UACC 180430Z 21007MPS CAVOK 16/11 Q1020 NOSIG RMK QFE734/0979
09:00
V
15 °C 10 km+ - 210° 210° 11 kt METAR UACC 180400Z 21006MPS CAVOK 15/11 Q1021 NOSIG RMK QFE734/0979
08:30
M
13 °C 10 km+ 2,600 ft 230° 230° 11 kt METAR UACC 180330Z 23006MPS 9999 BKN026 13/09 Q1021 NOSIG RMK QFE734/0979
08:00
V
12 °C 10 km+ - 190° 190° 9 kt METAR UACC 180300Z 19005MPS 9999 SCT026 12/09 Q1020 NOSIG RMK QFE734/0979
07:30
V
9 °C 10 km+ - 160° 160° 7 kt METAR UACC 180230Z 16004MPS 9999 SCT026 09/07 Q1021 NOSIG RMK QFE734/0979
07:00
V
9 °C 10 km+ 3,300 ft 190° 190° 5 kt METAR UACC 180200Z 19003MPS 9999 BKN033 09/07 Q1021 NOSIG RMK QFE734/0979
06:30
V
7 °C 10 km+ 4,000 ft 190° 190° 5 kt METAR UACC 180130Z 19003MPS 9999 BKN040 07/06 Q1021 NOSIG RMK QFE734/0979
06:00
V
6 °C 10 km+ 4,000 ft 180° 180° 3 kt METAR UACC 180100Z 18002MPS 9999 BKN040 06/05 Q1021 NOSIG RMK QFE734/0979
05:30
V
5 °C 10 km+ 4,000 ft 190° 190° 3 kt METAR UACC 180030Z 19002MPS 9999 BKN040 05/04 Q1021 NOSIG RMK QFE734/0979
05:00
V
5 °C 10 km+ - 190° 190° 3 kt METAR UACC 180000Z 19002MPS 9999 SCT040 05/04 Q1021 NOSIG RMK QFE734/0979
04:30
V
5 °C 10 km+ 4,000 ft 190° 190° 3 kt METAR UACC 172330Z 19002MPS 9999 BKN040 05/04 Q1020 NOSIG RMK QFE734/0979
04:00
V
4 °C 10 km+ 4,000 ft 190° 190° 3 kt METAR UACC 172300Z 19002MPS 9999 BKN040 04/04 Q1020 NOSIG RMK QFE734/0979
03:30
V
4 °C 10 km+ 4,000 ft 210° 210° 3 kt METAR UACC 172230Z 21002MPS 9999 BKN040 04/04 Q1020 NOSIG RMK QFE734/0979
03:00
M
4 °C 5 km - 180° 180° 3 kt METAR UACC 172200Z 18002MPS 5000 BR SCT043 04/04 Q1020 NOSIG RMK QFE734/0978
02:30
I
5 °C 4.5 km 4,300 ft 200° 200° 3 kt METAR UACC 172130Z 20002MPS 4500 BR BKN043 05/04 Q1020 NOSIG RMK QFE734/0978
02:00
V
6 °C 10 km+ 4,300 ft 190° 190° 3 kt METAR UACC 172100Z 19002MPS 9999 BKN043 06/05 Q1020 NOSIG RMK QFE734/0978
01:30
V
5 °C 10 km+ 4,300 ft 200° 200° 3 kt METAR UACC 172030Z 20002MPS 9999 BKN043 05/04 Q1020 NOSIG RMK QFE734/0978
01:00
V
5 °C 10 km+ 4,300 ft 200° 200° 1 kt METAR UACC 172000Z 20001MPS 9999 BKN043 05/04 Q1020 NOSIG RMK QFE734/0979
00:30
V
4 °C 10 km+ - 200° 200° 3 kt METAR UACC 171930Z 20002MPS 9999 SCT043 04/03 Q1021 NOSIG RMK QFE734/0979
00:00
V
6 °C 10 km+ - 220° 220° 5 kt METAR UACC 171900Z 22003MPS 9999 SCT043 06/04 Q1020 NOSIG RMK QFE734/0979

April 17, 2024

Time Code Weather Temp. Visibility Ceiling Wind METAR/SPECI
23:30
V
6 °C 10 km+ - 220° 220° 3 kt METAR UACC 171830Z 22002MPS CAVOK 06/04 Q1020 NOSIG RMK QFE734/0978
23:00
V
5 °C 10 km+ - 210° 210° 7 kt METAR UACC 171800Z 21004MPS CAVOK 05/03 Q1020 NOSIG RMK QFE733/0978
22:30
V
7 °C 10 km+ - 230° 230° 5 kt METAR UACC 171730Z 23003MPS CAVOK 07/05 Q1020 NOSIG RMK QFE734/0978
22:00
V
8 °C 10 km+ - 230° 230° 7 kt METAR UACC 171700Z 23004MPS CAVOK 08/05 Q1020 NOSIG RMK QFE734/0978
21:30
V
7 °C 10 km+ - 220° 220° 7 kt METAR UACC 171630Z 22004MPS 9999 SCT043 07/05 Q1020 NOSIG RMK QFE734/0978
21:00
V
8 °C 10 km+ - 220° 220° 7 kt METAR UACC 171600Z 22004MPS 9999 SCT043 08/05 Q1020 NOSIG RMK QFE734/0978
20:30
V
9 °C 10 km+ - 220° 220° 5 kt METAR UACC 171530Z 22003MPS 9999 SCT043 09/06 Q1020 NOSIG RMK QFE734/0978
20:00
V
11 °C 10 km+ - 230° 230° 5 kt METAR UACC 171500Z 23003MPS 9999 SCT043 11/06 Q1020 NOSIG RMK QFE733/0978
19:30
V
12 °C 10 km+ - 250° 250° 7 kt METAR UACC 171430Z 25004MPS 9999 SCT043 12/06 Q1019 NOSIG RMK QFE733/0978
19:00
V
13 °C 10 km+ - 240° 240° 7 kt METAR UACC 171400Z 24004MPS 9999 SCT043 13/06 Q1019 NOSIG RMK QFE733/0977
18:30
V
13 °C 10 km+ - 240° 240° 9 kt METAR UACC 171330Z 24005MPS 9999 SCT040 13/05 Q1019 NOSIG RMK QFE733/0977
18:00
V
14 °C 10 km+ - 240° 240° 11 kt METAR UACC 171300Z 24006MPS 9999 SCT040 14/05 Q1019 NOSIG RMK QFE733/0977
16:30
V
14 °C 10 km+ 4,000 ft 250° 250° 13 kt METAR UACC 171130Z 25007MPS 9999 BKN040 14/05 Q1019 NOSIG RMK QFE733/0977
16:00
V
14 °C 10 km+ 4,000 ft 270° 270° 11 kt METAR UACC 171100Z 27006MPS 9999 BKN040 14/04 Q1018 NOSIG RMK QFE732/0977
15:30
V
15 °C 10 km+ 3,300 ft 280° 280° 13 kt METAR UACC 171030Z 28007MPS 250V310 9999 BKN033 15/03 Q1018 NOSIG RMK QFE732/0976
15:00
V
14 °C 10 km+ 3,300 ft 290° 290° 13 kt METAR UACC 171000Z 29007MPS 260V320 9999 BKN033 14/02 Q1018 NOSIG RMK QFE732/0976
14:30
V
15 °C 10 km+ 3,300 ft 290° 290° 13 kt METAR UACC 170930Z 29007MPS 9999 BKN033 15/02 Q1018 NOSIG RMK QFE732/0976
14:00
V
15 °C 10 km+ - 270° 270° 15 kt METAR UACC 170900Z 27008MPS 9999 SCT023 15/02 Q1017 NOSIG RMK QFE732/0976
13:30
V
16 °C 10 km+ - 270° 270° 13 - 23 kt METAR UACC 170830Z 27007G12MPS 240V300 9999 SCT022 16/02 Q1017 NOSIG RMK QFE732/0976
13:00
V
15 °C 10 km+ - 260° 260° 15 - 27 kt METAR UACC 170800Z 26008G14MPS 240V300 9999 SCT020 15/03 Q1017 NOSIG RMK QFE732/0976
12:30
V
15 °C 10 km+ - 260° 260° 15 kt METAR UACC 170730Z 26008MPS 230V290 9999 SCT019 15/03 Q1017 NOSIG RMK QFE731/0975
12:00
V
14 °C 10 km+ - 260° 260° 15 - 25 kt METAR UACC 170700Z 26008G13MPS 9999 SCT019 14/03 Q1017 NOSIG RMK QFE731/0975
11:30
V
14 °C 10 km+ - 270° 270° 15 kt METAR UACC 170630Z 27008MPS 9999 SCT018 14/03 Q1016 NOSIG RMK QFE731/0975
11:00
V
14 °C 10 km+ - 270° 270° 11 kt METAR UACC 170600Z 27006MPS 240V300 9999 SCT016 14/04 Q1016 NOSIG RMK QFE731/0975
Report a change